createdAt,value
2022-09-06T00:01:36.793Z,78.88
2022-09-06T00:04:04.692Z,79.42
2022-09-06T00:06:33.831Z,79.09
2022-09-06T00:09:02.830Z,80.15
2022-09-06T00:11:30.440Z,80.46
2022-09-06T00:13:58.103Z,80.62
2022-09-06T00:16:30.729Z,80.60
2022-09-06T00:18:58.424Z,80.01
2022-09-06T00:21:37.100Z,79.72
2022-09-06T00:24:06.409Z,79.56
2022-09-06T00:26:37.089Z,80.29
2022-09-06T00:29:04.737Z,80.70
2022-09-06T00:31:35.449Z,80.20
2022-09-06T00:34:03.609Z,80.00
2022-09-06T00:36:33.269Z,80.38
2022-09-06T00:39:00.977Z,80.22
2022-09-06T00:41:33.343Z,80.13
2022-09-06T00:44:01.223Z,80.54
2022-09-06T00:46:29.294Z,80.07
2022-09-06T00:48:58.345Z,78.93
2022-09-06T00:51:26.397Z,78.09
2022-09-06T00:53:54.044Z,79.27
2022-09-06T00:56:21.905Z,78.09
2022-09-06T00:58:51.385Z,77.96
2022-09-06T01:01:19.106Z,77.82
2022-09-06T01:03:46.928Z,78.49
2022-09-06T01:06:17.921Z,77.96
2022-09-06T01:08:48.685Z,77.05
2022-09-06T01:11:20.867Z,77.18
2022-09-06T01:13:52.862Z,76.93
2022-09-06T01:16:22.728Z,75.60
2022-09-06T01:18:59.288Z,77.22
2022-09-06T01:21:33.714Z,75.79
2022-09-06T01:24:10.927Z,74.49
2022-09-06T01:27:02.313Z,76.86
2022-09-06T01:29:32.798Z,76.67
2022-09-06T01:32:02.145Z,76.54
2022-09-06T01:34:30.578Z,76.07
2022-09-06T01:37:09.920Z,75.75
2022-09-06T01:39:38.662Z,74.65
2022-09-06T01:42:08.970Z,75.27
2022-09-06T01:44:40.854Z,74.31
2022-09-06T01:47:10.448Z,74.71
2022-09-06T01:49:40.862Z,74.71
2022-09-06T01:52:10.198Z,75.54
2022-09-06T01:54:41.828Z,75.09
2022-09-06T01:57:13.806Z,74.39
2022-09-06T01:59:55.769Z,80.03
2022-09-06T02:02:25.624Z,79.04
2022-09-06T02:04:56.850Z,77.29
2022-09-06T02:07:25.681Z,76.16
2022-09-06T02:09:54.226Z,75.40
2022-09-06T02:12:29.177Z,74.79
2022-09-06T02:15:01.757Z,74.28
2022-09-06T02:17:31.469Z,74.18
2022-09-06T02:20:00.289Z,76.07
2022-09-06T02:22:30.740Z,76.01
2022-09-06T02:24:58.373Z,75.14
2022-09-06T02:27:26.214Z,74.60
2022-09-06T02:29:54.137Z,75.17
2022-09-06T02:32:27.127Z,76.62
2022-09-06T02:34:55.443Z,77.52
2022-09-06T02:37:26.147Z,75.80
2022-09-06T02:39:54.422Z,78.02
2022-09-06T02:42:22.422Z,77.19
2022-09-06T02:44:50.314Z,75.91
2022-09-06T02:47:18.316Z,76.40
2022-09-06T02:49:52.635Z,76.48
2022-09-06T02:52:20.225Z,76.26
2022-09-06T02:54:47.910Z,76.81
2022-09-06T02:57:15.610Z,78.20
2022-09-06T02:59:43.217Z,78.79
2022-09-06T03:02:14.164Z,78.59
2022-09-06T03:04:41.841Z,79.52
2022-09-06T03:07:11.200Z,77.84
2022-09-06T03:09:40.106Z,77.45
2022-09-06T03:12:13.463Z,76.50
2022-09-06T03:14:43.986Z,76.12
2022-09-06T03:17:21.869Z,76.04
2022-09-06T03:19:49.550Z,76.27
2022-09-06T03:22:19.642Z,77.58
2022-09-06T03:24:49.344Z,78.03
2022-09-06T03:27:16.977Z,77.93
2022-09-06T03:29:44.818Z,79.53
2022-09-06T03:32:12.394Z,78.15
2022-09-06T03:34:42.068Z,79.25
2022-09-06T03:37:12.150Z,79.54
2022-09-06T03:39:41.384Z,77.29
2022-09-06T03:42:11.462Z,76.97
2022-09-06T03:44:39.214Z,77.16
2022-09-06T03:47:07.365Z,76.73
2022-09-06T03:49:37.125Z,76.92
2022-09-06T03:52:07.864Z,77.53
2022-09-06T03:54:36.120Z,77.38
2022-09-06T03:57:05.234Z,77.95
2022-09-06T03:59:33.919Z,78.78
2022-09-06T04:02:01.748Z,80.30
2022-09-06T04:04:39.244Z,78.55
2022-09-06T04:07:06.938Z,79.29
2022-09-06T04:09:44.108Z,78.81
2022-09-06T04:12:13.120Z,81.03
2022-09-06T04:14:40.863Z,81.47
2022-09-06T04:17:11.435Z,82.83
2022-09-06T04:19:39.092Z,82.13
2022-09-06T04:22:06.874Z,82.19
2022-09-06T04:24:34.916Z,80.27
2022-09-06T04:27:04.319Z,77.97
2022-09-06T04:29:36.187Z,81.69
2022-09-06T04:32:04.219Z,79.90
2022-09-06T04:34:32.121Z,81.73
2022-09-06T04:36:59.766Z,79.84
2022-09-06T04:39:27.492Z,80.39
2022-09-06T04:41:57.932Z,79.64
2022-09-06T04:44:25.545Z,80.91
2022-09-06T04:46:56.109Z,80.63
2022-09-06T04:49:24.900Z,79.98
2022-09-06T04:51:52.609Z,79.18
2022-09-06T04:54:20.293Z,77.41
2022-09-06T04:56:48.382Z,78.70
2022-09-06T04:59:16.142Z,80.62
2022-09-06T05:01:45.944Z,82.47
2022-09-06T05:04:14.960Z,82.71
2022-09-06T05:06:43.244Z,80.28
2022-09-06T05:09:18.488Z,78.76
2022-09-06T05:11:47.369Z,77.39
2022-09-06T05:14:16.685Z,78.11
2022-09-06T05:16:45.586Z,77.77
2022-09-06T05:19:17.930Z,79.51
2022-09-06T05:21:46.025Z,80.19
2022-09-06T05:24:14.114Z,81.53
2022-09-06T05:26:42.170Z,80.31
2022-09-06T05:29:09.803Z,80.36
2022-09-06T05:31:37.651Z,81.33
2022-09-06T05:34:05.649Z,80.87
2022-09-06T05:36:35.606Z,80.80
2022-09-06T05:39:03.869Z,79.66
2022-09-06T05:41:33.941Z,79.85
2022-09-06T05:44:01.745Z,79.63
2022-09-06T05:46:30.734Z,79.97
2022-09-06T05:49:01.265Z,78.97
2022-09-06T05:51:31.694Z,80.35
2022-09-06T05:54:01.845Z,78.67
2022-09-06T05:56:30.894Z,80.01
2022-09-06T05:58:58.989Z,80.63
2022-09-06T06:01:29.433Z,79.31
2022-09-06T06:03:58.058Z,79.90
2022-09-06T06:06:27.665Z,82.78
2022-09-06T06:08:55.688Z,80.93
2022-09-06T06:11:27.205Z,82.04
2022-09-06T06:13:55.003Z,83.34
2022-09-06T06:16:23.632Z,83.62
2022-09-06T06:18:52.768Z,84.89
2022-09-06T06:21:21.638Z,82.40
2022-09-06T06:23:51.700Z,82.28
2022-09-06T06:26:20.897Z,82.19
2022-09-06T06:28:50.014Z,81.53
2022-09-06T06:31:18.028Z,80.85
2022-09-06T06:33:46.635Z,81.65
2022-09-06T06:36:24.544Z,80.04
2022-09-06T06:38:53.357Z,81.32
2022-09-06T06:41:24.027Z,82.44
2022-09-06T06:44:05.284Z,80.83
2022-09-06T06:46:34.017Z,80.48
2022-09-06T06:49:02.284Z,79.25
2022-09-06T06:51:31.935Z,79.01
2022-09-06T06:54:01.135Z,79.53
2022-09-06T06:56:29.927Z,79.63
2022-09-06T06:58:59.821Z,79.11
2022-09-06T07:01:28.583Z,80.27
2022-09-06T07:03:56.659Z,79.65
2022-09-06T07:09:12.813Z,79.18
2022-09-06T07:11:40.541Z,79.30
2022-09-06T07:14:11.276Z,77.18
2022-09-06T07:16:39.358Z,77.52
2022-09-06T07:19:07.124Z,77.23
2022-09-06T07:26:33.149Z,74.44
2022-09-06T07:29:01.739Z,75.97
2022-09-06T07:34:20.843Z,74.36
2022-09-06T07:36:49.308Z,74.70
2022-09-06T07:39:16.982Z,73.72
2022-09-06T07:41:44.693Z,74.44
2022-09-06T07:44:12.553Z,75.12
2022-09-06T07:46:42.408Z,74.44
2022-09-06T07:49:13.095Z,75.30
2022-09-06T07:51:43.732Z,73.32
2022-09-06T07:54:29.991Z,74.00
2022-09-06T07:57:01.430Z,72.79
2022-09-06T07:59:29.275Z,72.01
2022-09-06T08:01:59.797Z,71.08
2022-09-06T08:04:27.531Z,70.57
2022-09-06T08:09:47.787Z,69.48
2022-09-06T08:12:18.547Z,69.29
2022-09-06T08:14:48.607Z,69.61
2022-09-06T08:17:17.678Z,70.21
2022-09-06T08:19:59.282Z,69.57
2022-09-06T08:22:31.893Z,68.85
2022-09-06T08:25:02.520Z,68.46
2022-09-06T08:27:30.707Z,67.94
2022-09-06T08:29:58.530Z,67.29
2022-09-06T08:32:28.591Z,67.50
2022-09-06T08:34:56.361Z,67.23
2022-09-06T08:37:27.388Z,65.76
2022-09-06T08:39:55.557Z,64.80
2022-09-06T08:42:23.496Z,65.27
2022-09-06T08:44:55.111Z,64.79
2022-09-06T08:47:23.912Z,64.49
2022-09-06T08:49:54.757Z,65.57
2022-09-06T08:52:27.284Z,65.93
2022-09-06T08:54:55.793Z,63.76
2022-09-06T08:57:29.657Z,63.27
2022-09-06T08:59:59.715Z,63.58
2022-09-06T09:02:28.317Z,63.34
2022-09-06T09:04:58.412Z,64.62
2022-09-06T09:07:33.317Z,64.40
2022-09-06T09:10:01.065Z,63.72
2022-09-06T09:12:31.830Z,62.00
2022-09-06T09:15:01.839Z,63.52
2022-09-06T09:17:31.004Z,63.48
2022-09-06T09:20:02.022Z,62.26
2022-09-06T09:22:29.942Z,61.45
2022-09-06T09:24:58.691Z,62.29
2022-09-06T09:27:28.045Z,61.49
2022-09-06T09:32:50.387Z,62.06
2022-09-06T09:35:27.785Z,60.75
2022-09-06T09:38:09.464Z,61.63
2022-09-06T09:40:45.833Z,60.38
2022-09-06T09:43:15.796Z,60.52
2022-09-06T09:45:43.461Z,61.33
2022-09-06T09:48:18.984Z,59.31
2022-09-06T09:50:48.187Z,61.35
2022-09-06T09:53:16.548Z,60.38
2022-09-06T09:55:44.143Z,60.17
2022-09-06T09:58:20.981Z,59.19
2022-09-06T10:00:49.019Z,59.41
2022-09-06T10:03:17.366Z,59.99
2022-09-06T10:06:02.071Z,58.42
2022-09-06T10:08:35.950Z,58.83
2022-09-06T10:11:03.599Z,56.72
2022-09-06T10:13:31.631Z,58.08
2022-09-06T10:16:03.411Z,57.71
2022-09-06T10:18:31.775Z,57.15
2022-09-06T10:21:01.223Z,56.84
2022-09-06T10:26:24.744Z,56.97
2022-09-06T10:28:52.380Z,55.86
2022-09-06T10:31:38.060Z,57.07
2022-09-06T10:34:12.898Z,56.55
2022-09-06T10:36:41.245Z,54.98
2022-09-06T10:39:16.819Z,55.45
2022-09-06T10:41:49.194Z,54.72
2022-09-06T10:44:21.087Z,55.59
2022-09-06T10:46:49.324Z,54.32
2022-09-06T10:49:19.153Z,55.11
2022-09-06T10:51:50.848Z,56.01
2022-09-06T10:54:21.297Z,56.13
2022-09-06T10:56:52.366Z,56.05
2022-09-06T10:59:36.641Z,55.58
2022-09-06T11:02:10.804Z,54.83
2022-09-06T11:07:30.114Z,54.97
2022-09-06T11:09:59.846Z,55.14
2022-09-06T11:12:37.819Z,55.62
2022-09-06T11:15:06.190Z,55.53
2022-09-06T11:17:34.756Z,55.88
2022-09-06T11:20:03.578Z,55.17
2022-09-06T11:22:46.071Z,53.83
2022-09-06T11:25:22.978Z,54.30
2022-09-06T11:27:53.972Z,53.06
2022-09-06T11:30:26.796Z,53.82
2022-09-06T11:33:04.029Z,53.47
2022-09-06T11:35:32.679Z,54.04
2022-09-06T11:38:04.761Z,54.55
2022-09-06T11:40:39.093Z,55.41
2022-09-06T11:43:19.207Z,56.26
2022-09-06T11:45:48.395Z,58.06
2022-09-06T11:48:38.023Z,58.89
2022-09-06T11:51:10.674Z,59.00
2022-09-06T11:53:55.874Z,59.40
2022-09-06T11:56:33.574Z,60.91
2022-09-06T11:59:06.294Z,61.94
2022-09-06T12:01:36.591Z,62.91
2022-09-06T12:04:15.507Z,64.03
2022-09-06T12:06:58.603Z,64.92
2022-09-06T12:09:33.355Z,66.52
2022-09-06T12:12:03.385Z,67.43
2022-09-06T12:14:32.234Z,66.99
2022-09-06T12:17:27.652Z,72.17
2022-09-06T12:20:08.378Z,78.47
2022-09-06T12:22:52.230Z,67.58
2022-09-06T12:25:21.066Z,68.42
2022-09-06T12:27:56.644Z,67.93
2022-09-06T12:30:37.357Z,66.39
2022-09-06T12:33:10.936Z,65.46
2022-09-06T12:38:28.560Z,67.88
2022-09-06T12:40:59.098Z,62.80
2022-09-06T12:43:37.570Z,68.81
2022-09-06T12:46:07.693Z,67.64
2022-09-06T12:48:39.121Z,71.42
2022-09-06T12:51:07.397Z,73.71
2022-09-06T12:53:35.282Z,73.38
2022-09-06T12:56:03.419Z,74.33
2022-09-06T12:58:34.567Z,77.35
2022-09-06T13:01:07.250Z,75.86
2022-09-06T13:03:38.731Z,75.11
2022-09-06T13:06:10.114Z,76.25
2022-09-06T13:08:40.240Z,81.68
2022-09-06T13:11:10.631Z,83.17
2022-09-06T13:13:45.691Z,87.33
2022-09-06T13:16:13.431Z,88.06
2022-09-06T13:18:41.119Z,88.46
2022-09-06T13:21:11.657Z,84.30
2022-09-06T13:23:45.146Z,75.31
2022-09-06T13:26:13.087Z,72.45
2022-09-06T13:28:45.223Z,69.13
2022-09-06T13:31:30.820Z,69.91
2022-09-06T13:34:01.104Z,67.35
2022-09-06T13:36:33.408Z,71.78
2022-09-06T13:39:04.464Z,71.11
2022-09-06T13:41:39.490Z,72.41
2022-09-06T13:44:19.151Z,68.33
2022-09-06T13:46:46.968Z,75.35
2022-09-06T13:49:17.366Z,74.84
2022-09-06T13:51:45.148Z,71.34
2022-09-06T13:54:26.715Z,72.96
2022-09-06T13:56:54.560Z,71.43
2022-09-06T13:59:25.017Z,72.63
2022-09-06T14:02:00.772Z,72.31
2022-09-06T14:04:28.822Z,72.27
2022-09-06T14:06:59.374Z,73.11
2022-09-06T14:09:27.118Z,73.60
2022-09-06T14:11:55.325Z,74.07
2022-09-06T14:14:31.877Z,75.48
2022-09-06T14:16:59.861Z,75.47
2022-09-06T14:19:28.185Z,74.31
2022-09-06T14:21:55.982Z,73.98
2022-09-06T14:24:32.880Z,74.36
2022-09-06T14:27:00.569Z,75.34
2022-09-06T14:29:29.631Z,75.83
2022-09-06T14:31:57.234Z,74.45
2022-09-06T14:34:25.740Z,75.80
2022-09-06T14:36:53.539Z,78.00
2022-09-06T14:39:21.550Z,79.76
2022-09-06T14:41:50.760Z,79.13
2022-09-06T14:44:21.931Z,78.80
2022-09-06T14:46:53.590Z,77.41
2022-09-06T14:49:22.215Z,76.78
2022-09-06T14:51:50.271Z,77.05
2022-09-06T14:54:24.132Z,78.20
2022-09-06T14:56:55.386Z,77.18
2022-09-06T14:59:26.186Z,78.46
2022-09-06T15:01:56.382Z,77.67
2022-09-06T15:04:27.073Z,75.45
2022-09-06T15:06:57.317Z,74.32
2022-09-06T15:09:27.819Z,73.82
2022-09-06T15:11:55.596Z,73.61
2022-09-06T15:14:26.577Z,74.20
2022-09-06T15:17:00.839Z,74.43
2022-09-06T15:19:32.260Z,74.04
2022-09-06T15:21:59.963Z,73.40
2022-09-06T15:24:39.506Z,71.32
2022-09-06T15:27:07.155Z,70.04
2022-09-06T15:29:38.247Z,69.29
2022-09-06T15:32:10.618Z,71.84
2022-09-06T15:34:38.360Z,75.32
2022-09-06T15:37:06.044Z,74.24
2022-09-06T15:39:34.965Z,73.88
2022-09-06T15:42:02.847Z,75.33
2022-09-06T15:44:30.796Z,76.61
2022-09-06T15:46:59.257Z,80.70
2022-09-06T15:49:33.122Z,79.75
2022-09-06T15:52:05.008Z,80.42
2022-09-06T15:54:50.167Z,80.21
2022-09-06T15:57:19.094Z,79.02
2022-09-06T15:59:46.868Z,82.46
2022-09-06T16:02:17.567Z,84.74
2022-09-06T16:04:46.931Z,85.37
2022-09-06T16:07:16.947Z,83.71
2022-09-06T16:09:46.803Z,81.32
2022-09-06T16:12:28.576Z,80.33
2022-09-06T16:14:56.214Z,80.73
2022-09-06T16:17:27.403Z,81.13
2022-09-06T16:19:58.004Z,81.34
2022-09-06T16:22:26.714Z,81.82
2022-09-06T16:24:54.409Z,83.28
2022-09-06T16:27:24.245Z,83.63
2022-09-06T16:29:52.869Z,82.50
2022-09-06T16:32:20.728Z,81.92
2022-09-06T16:34:51.627Z,80.24
2022-09-06T16:37:20.850Z,78.56
2022-09-06T16:39:52.202Z,77.20
2022-09-06T16:42:20.065Z,77.50
2022-09-06T16:44:47.943Z,76.24
2022-09-06T16:47:16.742Z,76.25
2022-09-06T16:49:46.137Z,73.79
2022-09-06T16:52:19.137Z,75.41
2022-09-06T16:54:50.063Z,75.59
2022-09-06T16:57:19.814Z,74.42
2022-09-06T16:59:48.641Z,73.72
2022-09-06T17:02:16.391Z,73.49
2022-09-06T17:04:44.224Z,72.59
2022-09-06T17:07:14.139Z,74.08
2022-09-06T17:09:49.994Z,74.25
2022-09-06T17:12:29.325Z,78.53
2022-09-06T17:14:57.723Z,78.93
2022-09-06T17:17:24.618Z,78.13
2022-09-06T17:19:57.581Z,75.73
2022-09-06T17:22:38.171Z,74.50
2022-09-06T17:25:08.619Z,75.01
2022-09-06T17:27:38.018Z,75.39
2022-09-06T17:30:06.089Z,76.71
2022-09-06T17:32:36.581Z,77.14
2022-09-06T17:35:05.523Z,77.88
2022-09-06T17:37:33.580Z,78.83
2022-09-06T17:40:01.742Z,78.50
2022-09-06T17:42:32.788Z,79.20
2022-09-06T17:45:02.199Z,79.28
2022-09-06T17:47:29.952Z,79.00
2022-09-06T17:49:58.746Z,79.25
2022-09-06T17:52:30.243Z,79.41
2022-09-06T17:54:59.158Z,80.02
2022-09-06T17:57:28.174Z,80.23
2022-09-06T17:59:55.890Z,79.45
2022-09-06T18:02:26.682Z,80.30
2022-09-06T18:04:56.013Z,81.48
2022-09-06T18:07:23.902Z,80.99
2022-09-06T18:09:51.690Z,81.55
2022-09-06T18:12:30.649Z,81.63
2022-09-06T18:15:02.040Z,81.06
2022-09-06T18:17:32.578Z,81.39
2022-09-06T18:20:02.603Z,80.50
2022-09-06T18:22:30.335Z,80.39
2022-09-06T18:25:05.748Z,80.03
2022-09-06T18:27:34.339Z,80.84
2022-09-06T18:30:04.637Z,80.56
2022-09-06T18:32:40.912Z,81.25
2022-09-06T18:35:10.987Z,80.46
2022-09-06T18:37:38.855Z,80.64
2022-09-06T18:40:07.232Z,80.50
2022-09-06T18:42:35.419Z,81.20
2022-09-06T18:45:03.274Z,81.08
2022-09-06T18:47:33.848Z,81.23
2022-09-06T18:50:04.530Z,81.36
2022-09-06T18:52:32.695Z,82.71
2022-09-06T18:55:02.461Z,84.68
2022-09-06T18:57:31.461Z,83.10
2022-09-06T18:59:59.152Z,82.25
2022-09-06T19:02:27.868Z,82.17
2022-09-06T19:04:56.055Z,83.31
2022-09-06T19:07:29.870Z,84.16
2022-09-06T19:09:58.005Z,84.36
2022-09-06T19:12:28.703Z,84.36
2022-09-06T19:14:56.543Z,85.07
2022-09-06T19:17:24.274Z,85.10
2022-09-06T19:19:52.386Z,86.26
2022-09-06T19:22:22.437Z,86.41
2022-09-06T19:24:51.487Z,84.91
2022-09-06T19:27:19.236Z,85.88
2022-09-06T19:29:49.543Z,87.03
2022-09-06T19:32:19.218Z,88.13
2022-09-06T19:34:46.936Z,88.00
2022-09-06T19:37:17.460Z,86.70
2022-09-06T19:39:45.245Z,86.07
2022-09-06T19:42:17.512Z,85.15
2022-09-06T19:44:45.339Z,86.15
2022-09-06T19:47:20.755Z,85.10
2022-09-06T19:49:48.567Z,85.06
2022-09-06T19:52:16.346Z,87.38
2022-09-06T19:54:45.918Z,87.03
2022-09-06T19:57:13.637Z,89.11
2022-09-06T19:59:45.695Z,88.18
2022-09-06T20:02:13.898Z,89.17
2022-09-06T20:04:41.564Z,90.96
2022-09-06T20:07:09.317Z,90.81
2022-09-06T20:09:37.096Z,90.71
2022-09-06T20:12:04.987Z,92.00
2022-09-06T20:14:32.713Z,93.52
2022-09-06T20:17:31.767Z,94.11
2022-09-06T20:19:51.734Z,92.34
2022-09-06T20:22:19.482Z,92.02
2022-09-06T20:24:47.979Z,92.02
2022-09-06T20:27:15.992Z,90.90
2022-09-06T20:29:43.898Z,90.81
2022-09-06T20:32:15.384Z,90.92
2022-09-06T20:34:43.407Z,91.73
2022-09-06T20:37:18.679Z,91.38
2022-09-06T20:39:47.564Z,92.27
2022-09-06T20:42:15.523Z,92.81
2022-09-06T20:44:45.605Z,91.37
2022-09-06T20:47:14.734Z,90.29
2022-09-06T20:49:45.503Z,91.49
2022-09-06T20:52:13.247Z,93.51
2022-09-06T20:54:41.023Z,93.87
2022-09-06T20:57:08.749Z,93.33
2022-09-06T20:59:38.847Z,93.42
2022-09-06T21:02:06.734Z,93.04
2022-09-06T21:04:35.981Z,94.64
2022-09-06T21:07:17.162Z,94.71
2022-09-06T21:09:47.924Z,94.40
2022-09-06T21:12:17.421Z,92.97
2022-09-06T21:14:45.532Z,92.00
2022-09-06T21:17:13.281Z,92.22
2022-09-06T21:19:44.522Z,92.32
2022-09-06T21:22:12.260Z,92.81
2022-09-06T21:24:40.373Z,93.07
2022-09-06T21:27:08.119Z,93.64
2022-09-06T21:29:35.778Z,92.39
2022-09-06T21:32:03.676Z,89.84
2022-09-06T21:34:31.406Z,89.63
2022-09-06T21:37:00.518Z,89.53
2022-09-06T21:39:28.182Z,88.40
2022-09-06T21:41:56.129Z,88.31
2022-09-06T21:44:23.900Z,89.51
2022-09-06T21:46:51.711Z,90.87
2022-09-06T21:49:19.485Z,91.50
2022-09-06T21:51:47.311Z,90.79
2022-09-06T21:54:16.498Z,91.82
2022-09-06T21:56:46.263Z,91.03
2022-09-06T21:59:18.854Z,91.66
2022-09-06T22:01:46.898Z,91.93
2022-09-06T22:04:15.018Z,90.52
2022-09-06T22:06:42.663Z,88.49
2022-09-06T22:09:11.488Z,89.48
2022-09-06T22:11:41.650Z,89.36
2022-09-06T22:14:10.753Z,89.30
2022-09-06T22:16:39.283Z,90.80
2022-09-06T22:19:08.546Z,90.44
2022-09-06T22:21:36.741Z,89.21
2022-09-06T22:24:05.486Z,89.26
2022-09-06T22:26:34.911Z,89.11
2022-09-06T22:29:06.072Z,87.46
2022-09-06T22:31:34.291Z,86.14
2022-09-06T22:34:02.502Z,83.89
2022-09-06T22:36:30.449Z,85.63
2022-09-06T22:39:01.031Z,84.67
2022-09-06T22:41:35.879Z,84.78
2022-09-06T22:44:05.381Z,83.86
2022-09-06T22:46:33.260Z,84.84
2022-09-06T22:49:07.031Z,83.53
2022-09-06T22:51:34.697Z,83.21
2022-09-06T22:54:02.511Z,82.21
2022-09-06T22:56:32.578Z,82.42
2022-09-06T22:59:02.989Z,82.31
2022-09-06T23:01:38.779Z,82.52
2022-09-06T23:04:07.103Z,81.98
2022-09-06T23:06:37.968Z,81.71
2022-09-06T23:09:05.749Z,82.03
2022-09-06T23:11:34.060Z,81.96
2022-09-06T23:14:02.982Z,82.11
2022-09-06T23:16:30.767Z,82.84
2022-09-06T23:19:03.342Z,81.96
2022-09-06T23:21:35.630Z,83.13
2022-09-06T23:24:03.602Z,83.49
2022-09-06T23:26:32.342Z,83.05
2022-09-06T23:29:00.176Z,81.44
2022-09-06T23:31:29.041Z,80.53
2022-09-06T23:33:57.845Z,80.40
2022-09-06T23:36:27.712Z,79.43
2022-09-06T23:38:55.891Z,80.43
2022-09-06T23:41:23.692Z,80.62
2022-09-06T23:43:52.477Z,80.33
2022-09-06T23:46:30.962Z,81.84
2022-09-06T23:49:02.057Z,80.61
2022-09-06T23:51:34.299Z,82.23
2022-09-06T23:54:05.197Z,80.79
2022-09-06T23:56:35.255Z,80.81
2022-09-06T23:59:04.803Z,81.35
